aviador You're here:

SLCB Decoded Metar

COCHABAMBA in BOLIVIA
Report Time2017-12-11 09:00:00
UTC Time2017-12-11 09:14:50
Flight Rules vfr VFR
Wind220° at 04 kt
W.Decomp.*RWY 22: 4.0 kt HW 0.4 kt RCW
RWY 14: 0.3 kt HW 4.0 kt RCW
W.Rank220° ranks 14
Current wind is below 220° avg. (5.4)
Visibility8000 m
Phenomena:N/A
Clouds:Few 027 Hf
Broken 200 Hf
Expected CloudBase > 400 ft AGL from Temp-Dew spread
Ceiling20,000 ft
Temp11°C (ISA +13)
Dew Point10°C (94% RH)
AAT9.6°C
QNH1025 hPa
Density Alt9,616 ft
Elevation8,360 ft
Report Wrong Elevation
Raw Report
METAR SLCB 110900Z 22004KT 8000 FEW027 BKN200 11/10 Q1025=

Extra information for SLCB:More info

Metar Taf Metar & Taf Last 4 Metars F.Rules Stats Wind Profile Meteogram Temp Stats Airport Information Weather charts Add Link Nearby VenuesMetar ALERT Operation Metar Decoded Social comments